createdAt,value
2022-10-26T00:01:09.483Z,9.82
2022-10-26T00:03:37.003Z,9.68
2022-10-26T00:06:07.920Z,9.43
2022-10-26T00:08:35.290Z,10.52
2022-10-26T00:11:02.438Z,9.25
2022-10-26T00:13:29.661Z,9.77
2022-10-26T00:15:56.901Z,9.32
2022-10-26T00:18:24.277Z,9.13
2022-10-26T00:20:51.866Z,9.05
2022-10-26T00:23:19.100Z,8.88
2022-10-26T00:25:46.242Z,8.52
2022-10-26T00:28:13.391Z,10.23
2022-10-26T00:30:40.606Z,10.88
2022-10-26T00:33:07.761Z,9.73
2022-10-26T00:35:45.562Z,10.77
2022-10-26T00:38:13.584Z,12.82
2022-10-26T00:40:40.789Z,12.95
2022-10-26T00:43:14.475Z,9.30
2022-10-26T00:45:41.644Z,8.90
2022-10-26T00:48:09.464Z,8.45
2022-10-26T00:50:37.978Z,8.52
2022-10-26T00:53:05.423Z,8.25
2022-10-26T00:55:33.564Z,9.32
2022-10-26T00:58:00.878Z,7.68
2022-10-26T01:00:28.051Z,7.97
2022-10-26T01:02:55.750Z,8.13
2022-10-26T01:05:22.919Z,8.77
2022-10-26T01:07:50.489Z,8.68
2022-10-26T01:10:18.780Z,8.25
2022-10-26T01:12:46.217Z,8.45
2022-10-26T01:15:13.394Z,8.05
2022-10-26T01:17:40.530Z,8.88
2022-10-26T01:20:07.716Z,8.77
2022-10-26T01:22:37.931Z,8.13
2022-10-26T01:25:05.093Z,8.63
2022-10-26T01:27:32.284Z,7.72
2022-10-26T01:29:59.414Z,7.82
2022-10-26T01:32:45.217Z,7.68
2022-10-26T01:35:17.118Z,8.10
2022-10-26T01:37:48.120Z,9.38
2022-10-26T01:40:20.751Z,8.88
2022-10-26T01:42:49.023Z,8.90
2022-10-26T01:45:16.213Z,8.20
2022-10-26T01:47:43.377Z,7.47
2022-10-26T01:50:10.661Z,7.72
2022-10-26T01:52:37.842Z,7.88
2022-10-26T01:55:27.981Z,8.55
2022-10-26T01:57:55.320Z,8.65
2022-10-26T02:00:22.480Z,8.30
2022-10-26T02:02:52.802Z,8.23
2022-10-26T02:05:19.930Z,8.57
2022-10-26T02:07:47.380Z,8.10
2022-10-26T02:10:30.229Z,8.95
2022-10-26T02:13:23.601Z,8.95
2022-10-26T02:15:55.403Z,9.23
2022-10-26T02:18:28.992Z,9.98
2022-10-26T02:20:56.565Z,9.18
2022-10-26T02:23:24.676Z,14.00
2022-10-26T02:25:54.276Z,11.05
2022-10-26T02:28:22.345Z,13.23
2022-10-26T02:30:49.576Z,9.02
2022-10-26T02:33:16.719Z,9.45
2022-10-26T02:35:44.283Z,15.15
2022-10-26T02:38:11.757Z,13.95
2022-10-26T02:40:38.970Z,16.60
2022-10-26T02:43:10.575Z,15.70
2022-10-26T02:45:38.508Z,9.27
2022-10-26T02:48:05.753Z,9.93
2022-10-26T02:50:41.469Z,11.05
2022-10-26T02:53:11.351Z,23.67
2022-10-26T02:55:40.538Z,24.27
2022-10-26T02:58:09.409Z,23.02
2022-10-26T03:00:36.570Z,20.83
2022-10-26T03:03:03.790Z,22.20
2022-10-26T03:05:36.813Z,18.27
2022-10-26T03:08:04.049Z,23.08
2022-10-26T03:10:31.383Z,17.05
2022-10-26T03:12:58.758Z,17.60
2022-10-26T03:15:25.936Z,17.45
2022-10-26T03:17:53.102Z,16.85
2022-10-26T03:20:20.316Z,16.77
2022-10-26T03:22:50.338Z,14.50
2022-10-26T03:25:17.526Z,21.40
2022-10-26T03:27:44.747Z,19.20
2022-10-26T03:30:11.969Z,20.80
2022-10-26T03:32:39.202Z,28.10
2022-10-26T03:35:06.547Z,25.05
2022-10-26T03:37:33.699Z,24.23
2022-10-26T03:40:00.875Z,18.33
2022-10-26T03:42:28.095Z,17.67
2022-10-26T03:44:55.242Z,20.92
2022-10-26T03:47:22.384Z,16.35
2022-10-26T03:49:49.553Z,15.35
2022-10-26T03:52:16.709Z,12.98
2022-10-26T03:54:43.879Z,10.52
2022-10-26T03:57:11.073Z,13.65
2022-10-26T03:59:38.246Z,14.35
2022-10-26T04:02:05.386Z,14.07
2022-10-26T04:04:32.612Z,11.70
2022-10-26T04:06:59.812Z,12.18
2022-10-26T04:09:26.973Z,13.38
2022-10-26T04:11:54.186Z,13.73
2022-10-26T04:14:21.379Z,12.75
2022-10-26T04:16:48.572Z,13.15
2022-10-26T04:19:15.857Z,13.70
2022-10-26T04:21:43.001Z,16.73
2022-10-26T04:24:11.508Z,15.17
2022-10-26T04:26:38.683Z,12.60
2022-10-26T04:29:06.801Z,13.65
2022-10-26T04:31:34.288Z,13.32
2022-10-26T04:34:01.547Z,14.05
2022-10-26T04:36:28.687Z,13.82
2022-10-26T04:38:55.822Z,14.23
2022-10-26T04:41:23.074Z,13.23
2022-10-26T04:43:50.244Z,13.83
2022-10-26T04:46:17.400Z,13.67
2022-10-26T04:48:44.676Z,13.93
2022-10-26T04:51:11.942Z,14.38
2022-10-26T04:53:39.107Z,13.15
2022-10-26T04:56:06.344Z,13.85
2022-10-26T04:58:33.495Z,11.18
2022-10-26T05:01:02.376Z,11.65
2022-10-26T05:03:30.236Z,12.82
2022-10-26T05:05:59.657Z,14.88
2022-10-26T05:08:27.962Z,22.30
2022-10-26T05:10:55.420Z,19.17
2022-10-26T05:13:22.612Z,43.85
2022-10-26T05:15:49.875Z,27.58
2022-10-26T05:18:17.042Z,39.30
2022-10-26T05:20:45.181Z,30.23
2022-10-26T05:23:12.451Z,34.78
2022-10-26T05:25:39.827Z,31.17
2022-10-26T05:28:09.443Z,25.98
2022-10-26T05:30:36.728Z,28.73
2022-10-26T05:33:04.164Z,28.17
2022-10-26T05:35:31.558Z,30.02
2022-10-26T05:37:58.856Z,28.48
2022-10-26T05:40:26.099Z,27.83
2022-10-26T05:42:53.529Z,28.83
2022-10-26T05:45:20.751Z,25.63
2022-10-26T05:47:48.307Z,21.58
2022-10-26T05:50:15.692Z,23.05
2022-10-26T05:52:46.294Z,24.15
2022-10-26T05:55:14.534Z,23.10
2022-10-26T05:57:41.851Z,23.03
2022-10-26T06:00:10.332Z,25.77
2022-10-26T06:02:41.108Z,24.67
2022-10-26T06:05:09.324Z,25.58
2022-10-26T06:07:36.589Z,27.80
2022-10-26T06:10:04.508Z,26.33
2022-10-26T06:12:31.758Z,22.60
2022-10-26T06:14:59.165Z,24.10
2022-10-26T06:17:29.117Z,24.30
2022-10-26T06:20:14.917Z,25.85
2022-10-26T06:22:45.179Z,26.50
2022-10-26T06:25:15.071Z,38.30
2022-10-26T06:28:05.312Z,27.88
2022-10-26T06:30:32.476Z,31.08
2022-10-26T06:33:06.364Z,31.45
2022-10-26T06:35:48.620Z,33.78
2022-10-26T06:38:16.466Z,37.80
2022-10-26T06:40:44.538Z,34.80
2022-10-26T06:43:13.180Z,34.25
2022-10-26T06:45:41.330Z,33.80
2022-10-26T06:48:09.895Z,35.35
2022-10-26T06:50:45.401Z,34.23
2022-10-26T06:53:31.540Z,31.73
2022-10-26T06:55:59.292Z,29.27
2022-10-26T06:58:30.307Z,31.00
2022-10-26T07:00:57.691Z,26.88
2022-10-26T07:03:27.568Z,26.25
2022-10-26T07:05:54.706Z,23.88
2022-10-26T07:08:22.013Z,21.83
2022-10-26T07:10:49.754Z,20.75
2022-10-26T07:13:17.162Z,21.92
2022-10-26T07:15:45.147Z,21.50
2022-10-26T07:18:12.450Z,24.05
2022-10-26T07:20:39.942Z,21.35
2022-10-26T07:23:07.275Z,20.80
2022-10-26T07:25:34.656Z,20.27
2022-10-26T07:28:02.080Z,20.38
2022-10-26T07:30:29.460Z,20.63
2022-10-26T07:33:14.651Z,18.48
2022-10-26T07:35:41.802Z,15.30
2022-10-26T07:38:09.055Z,14.18
2022-10-26T07:40:37.239Z,13.90
2022-10-26T07:43:04.447Z,14.48
2022-10-26T07:45:31.647Z,13.98
2022-10-26T07:47:58.826Z,14.80
2022-10-26T07:50:26.029Z,15.45
2022-10-26T07:52:53.342Z,14.18
2022-10-26T07:55:20.805Z,14.13
2022-10-26T07:57:50.973Z,25.30
2022-10-26T08:00:22.003Z,26.80
2022-10-26T08:02:49.299Z,30.90
2022-10-26T08:05:16.474Z,16.77
2022-10-26T08:07:44.786Z,13.80
2022-10-26T08:10:12.203Z,11.73
2022-10-26T08:12:39.692Z,11.32
2022-10-26T08:15:07.376Z,10.65
2022-10-26T08:17:34.641Z,11.10
2022-10-26T08:20:01.955Z,10.30
2022-10-26T08:22:32.255Z,11.50
2022-10-26T08:24:59.449Z,11.63
2022-10-26T08:27:26.691Z,12.90
2022-10-26T08:29:53.867Z,9.43
2022-10-26T08:32:21.083Z,8.30
2022-10-26T08:34:48.267Z,5.63
2022-10-26T08:37:15.508Z,5.78
2022-10-26T08:39:42.697Z,5.32
2022-10-26T08:42:18.328Z,4.70
2022-10-26T08:44:49.550Z,4.70
2022-10-26T08:47:43.261Z,4.85
2022-10-26T08:50:11.391Z,5.50
2022-10-26T08:52:44.385Z,5.30
2022-10-26T08:55:13.703Z,8.27
2022-10-26T08:57:41.702Z,9.65
2022-10-26T09:00:12.807Z,6.13
2022-10-26T09:02:39.967Z,11.55
2022-10-26T09:05:13.174Z,13.50
2022-10-26T09:07:43.342Z,8.70
2022-10-26T09:10:19.368Z,7.00
2022-10-26T09:12:46.712Z,7.60
2022-10-26T09:15:19.823Z,4.55
2022-10-26T09:17:46.959Z,17.83
2022-10-26T09:20:34.413Z,8.43
2022-10-26T09:23:20.332Z,8.57
2022-10-26T09:25:49.323Z,6.55
2022-10-26T09:28:17.601Z,3.83
2022-10-26T09:30:45.367Z,4.78
2022-10-26T09:33:16.688Z,10.93
2022-10-26T09:35:50.070Z,6.88
2022-10-26T09:38:20.379Z,9.40
2022-10-26T09:40:56.774Z,4.40
2022-10-26T09:43:39.214Z,3.70
2022-10-26T09:46:06.469Z,4.00
2022-10-26T09:48:37.732Z,2.00
2022-10-26T09:51:05.125Z,3.13
2022-10-26T09:53:32.643Z,1.50
2022-10-26T09:56:02.906Z,2.60
2022-10-26T09:58:33.851Z,1.70
2022-10-26T10:01:01.071Z,1.60
2022-10-26T10:03:29.823Z,1.10
2022-10-26T10:06:16.159Z,0.98
2022-10-26T10:08:43.359Z,1.05
2022-10-26T10:11:11.748Z,1.20
2022-10-26T10:13:42.890Z,1.00
2022-10-26T10:16:14.317Z,0.80
2022-10-26T10:18:42.333Z,0.90
2022-10-26T10:21:09.933Z,1.20
2022-10-26T10:23:38.051Z,1.73
2022-10-26T10:26:11.009Z,1.10
2022-10-26T10:28:38.283Z,1.23
2022-10-26T10:31:07.015Z,1.13
2022-10-26T10:33:35.382Z,1.00
2022-10-26T10:36:02.587Z,1.67
2022-10-26T10:38:29.920Z,1.65
2022-10-26T10:40:58.452Z,1.58
2022-10-26T10:43:25.638Z,1.63
2022-10-26T10:45:54.750Z,1.17
2022-10-26T10:48:39.505Z,1.50
2022-10-26T10:51:12.390Z,3.33
2022-10-26T10:53:52.313Z,1.50
2022-10-26T10:56:19.451Z,1.30
2022-10-26T10:58:46.608Z,1.42
2022-10-26T11:01:14.791Z,33.72
2022-10-26T11:03:51.267Z,6.15
2022-10-26T11:06:19.715Z,1.30
2022-10-26T11:08:50.626Z,1.50
2022-10-26T11:11:22.652Z,1.45
2022-10-26T11:14:08.367Z,1.70
2022-10-26T11:16:42.996Z,1.80
2022-10-26T11:19:16.371Z,1.80
2022-10-26T11:21:43.551Z,1.70
2022-10-26T11:24:13.432Z,1.52
2022-10-26T11:27:15.964Z,1.38
2022-10-26T11:29:49.054Z,1.20
2022-10-26T11:32:30.468Z,1.40
2022-10-26T11:35:16.431Z,1.48
2022-10-26T11:37:49.330Z,1.45
2022-10-26T11:40:35.158Z,2.05
2022-10-26T11:43:13.428Z,1.92
2022-10-26T11:45:45.020Z,1.83
2022-10-26T11:48:15.399Z,3.88
2022-10-26T11:50:44.337Z,5.75
2022-10-26T11:53:13.754Z,3.08
2022-10-26T11:55:41.262Z,1.80
2022-10-26T11:58:11.615Z,2.00
2022-10-26T12:00:59.103Z,2.00
2022-10-26T12:03:29.688Z,2.88
2022-10-26T12:05:56.906Z,3.97
2022-10-26T12:08:27.627Z,1.60
2022-10-26T12:11:00.894Z,2.30
2022-10-26T12:13:34.422Z,1.92
2022-10-26T12:16:14.571Z,1.38
2022-10-26T12:19:01.777Z,4.85
2022-10-26T12:21:29.275Z,4.68
2022-10-26T12:24:03.233Z,2.08
2022-10-26T12:26:30.383Z,1.90
2022-10-26T12:29:03.447Z,1.70
2022-10-26T12:31:33.810Z,1.83
2022-10-26T12:34:01.203Z,1.52
2022-10-26T12:36:47.257Z,1.60
2022-10-26T12:39:30.639Z,2.63
2022-10-26T12:41:58.819Z,2.05
2022-10-26T12:44:39.601Z,1.80
2022-10-26T12:47:06.842Z,1.60
2022-10-26T12:49:52.567Z,1.60
2022-10-26T12:52:23.815Z,1.88
2022-10-26T12:54:56.016Z,2.17
2022-10-26T12:57:34.891Z,7.93
2022-10-26T13:00:02.774Z,2.45
2022-10-26T13:02:48.993Z,1.90
2022-10-26T13:05:30.381Z,2.35
2022-10-26T13:08:04.096Z,1.77
2022-10-26T13:10:31.253Z,1.50
2022-10-26T13:12:59.281Z,1.40
2022-10-26T13:15:34.998Z,1.80
2022-10-26T13:18:03.323Z,2.67
2022-10-26T13:20:31.025Z,4.88
2022-10-26T13:22:58.288Z,4.75
2022-10-26T13:25:26.101Z,5.20
2022-10-26T13:28:00.519Z,2.80
2022-10-26T13:30:33.752Z,6.03
2022-10-26T13:33:01.167Z,6.28
2022-10-26T13:35:28.306Z,6.85
2022-10-26T13:37:55.878Z,5.70
2022-10-26T13:40:24.178Z,5.68
2022-10-26T13:42:53.365Z,6.80
2022-10-26T13:45:21.813Z,3.58
2022-10-26T13:48:01.173Z,3.47
2022-10-26T13:50:32.031Z,4.97
2022-10-26T13:53:00.709Z,4.70
2022-10-26T13:55:32.254Z,2.42
2022-10-26T13:58:18.413Z,3.67
2022-10-26T14:01:04.640Z,2.15
2022-10-26T14:03:31.915Z,2.28
2022-10-26T14:05:59.045Z,2.38
2022-10-26T14:08:26.258Z,2.80
2022-10-26T14:10:57.307Z,2.35
2022-10-26T14:13:27.701Z,2.50
2022-10-26T14:15:55.678Z,2.50
2022-10-26T14:18:26.550Z,2.28
2022-10-26T14:21:04.378Z,2.40
2022-10-26T14:23:38.241Z,3.22
2022-10-26T14:26:05.450Z,5.05
2022-10-26T14:28:33.367Z,2.60
2022-10-26T14:31:23.585Z,2.40
2022-10-26T14:33:51.049Z,2.90
2022-10-26T14:36:18.230Z,3.63
2022-10-26T14:38:45.916Z,4.15
2022-10-26T14:41:13.337Z,3.33
2022-10-26T14:43:40.525Z,3.08
2022-10-26T14:46:07.704Z,3.55
2022-10-26T14:48:35.284Z,3.17
2022-10-26T14:51:12.779Z,4.38
2022-10-26T14:53:40.514Z,7.45
2022-10-26T14:56:17.913Z,5.22
2022-10-26T14:58:45.218Z,9.38
2022-10-26T15:01:24.589Z,6.43
2022-10-26T15:04:01.569Z,6.15
2022-10-26T15:06:28.741Z,5.18
2022-10-26T15:08:59.672Z,11.02
2022-10-26T15:11:29.978Z,5.65
2022-10-26T15:13:57.133Z,7.13
2022-10-26T15:16:25.182Z,8.95
2022-10-26T15:18:54.686Z,8.80
2022-10-26T15:21:35.663Z,8.93
2022-10-26T15:24:02.831Z,10.48
2022-10-26T15:26:30.009Z,10.15
2022-10-26T15:28:57.402Z,11.50
2022-10-26T15:31:28.958Z,14.05
2022-10-26T15:33:56.078Z,14.75
2022-10-26T15:36:23.211Z,15.43
2022-10-26T15:38:50.467Z,15.13
2022-10-26T15:41:33.523Z,14.55
2022-10-26T15:44:01.488Z,45.55
2022-10-26T15:46:33.269Z,15.70
2022-10-26T15:49:01.115Z,15.18
2022-10-26T15:51:31.129Z,20.10
2022-10-26T15:53:58.780Z,22.08
2022-10-26T15:56:26.259Z,25.75
2022-10-26T15:58:53.759Z,27.83
2022-10-26T16:01:21.884Z,25.75
2022-10-26T16:03:49.181Z,24.48
2022-10-26T16:06:27.318Z,21.70
2022-10-26T16:08:54.690Z,26.50
2022-10-26T16:11:21.850Z,21.27
2022-10-26T16:16:18.030Z,33.72
2022-10-26T16:18:45.243Z,36.70
2022-10-26T16:21:16.487Z,39.15
2022-10-26T16:23:43.946Z,32.40
2022-10-26T16:26:11.160Z,47.22
2022-10-26T16:28:38.425Z,44.55
2022-10-26T16:31:06.430Z,39.60
2022-10-26T16:33:35.190Z,48.92
2022-10-26T16:36:02.396Z,38.22
2022-10-26T16:38:31.583Z,39.20
2022-10-26T16:41:08.484Z,42.15
2022-10-26T16:43:36.566Z,86.78
2022-10-26T16:46:07.702Z,41.40
2022-10-26T16:48:38.250Z,44.90
2022-10-26T16:51:06.579Z,45.28
2022-10-26T16:53:33.803Z,42.65
2022-10-26T16:56:04.625Z,39.92
2022-10-26T16:58:34.355Z,41.08
2022-10-26T17:01:04.129Z,40.47
2022-10-26T17:03:31.324Z,37.53
2022-10-26T17:05:58.427Z,30.85
2022-10-26T17:08:26.095Z,16.90
2022-10-26T17:10:53.611Z,17.75
2022-10-26T17:13:20.822Z,40.20
2022-10-26T17:15:48.077Z,56.92
2022-10-26T17:18:15.362Z,50.60
2022-10-26T17:20:48.968Z,45.50
2022-10-26T17:23:16.166Z,39.33
2022-10-26T17:25:43.318Z,47.13
2022-10-26T17:28:10.446Z,35.10
2022-10-26T17:30:38.003Z,41.38
2022-10-26T17:33:05.182Z,46.42
2022-10-26T17:35:35.343Z,38.80
2022-10-26T17:38:02.574Z,40.95
2022-10-26T17:40:29.739Z,42.22
2022-10-26T17:42:56.884Z,42.08
2022-10-26T17:45:24.145Z,41.20
2022-10-26T17:47:51.572Z,53.15
2022-10-26T17:50:18.875Z,67.25
2022-10-26T17:52:46.068Z,57.72
2022-10-26T17:55:13.234Z,45.95
2022-10-26T17:57:40.402Z,55.63
2022-10-26T18:00:07.835Z,227.77
2022-10-26T18:02:37.460Z,54.47
2022-10-26T18:05:06.894Z,60.97
2022-10-26T18:07:35.088Z,73.90
2022-10-26T18:10:13.913Z,58.53
2022-10-26T18:12:49.744Z,61.00
2022-10-26T18:15:17.154Z,66.68
2022-10-26T18:17:45.129Z,61.85
2022-10-26T18:20:12.425Z,60.13
2022-10-26T18:22:39.538Z,72.18
2022-10-26T18:25:06.728Z,60.28
2022-10-26T18:27:33.881Z,53.90
2022-10-26T18:30:01.059Z,49.50
2022-10-26T18:32:28.586Z,51.90
2022-10-26T18:34:55.734Z,46.42
2022-10-26T18:37:22.864Z,53.80
2022-10-26T18:39:50.005Z,54.67
2022-10-26T18:42:17.179Z,52.25
2022-10-26T18:44:44.381Z,49.40
2022-10-26T18:47:11.531Z,44.50
2022-10-26T18:49:41.737Z,45.38
2022-10-26T18:52:09.207Z,48.58
2022-10-26T18:54:36.345Z,49.42
2022-10-26T18:57:03.528Z,48.35
2022-10-26T18:59:30.883Z,47.97
2022-10-26T19:01:58.111Z,54.70
2022-10-26T19:04:25.430Z,52.92
2022-10-26T19:06:52.575Z,45.50
2022-10-26T19:09:19.752Z,44.45
2022-10-26T19:11:46.919Z,46.03
2022-10-26T19:14:14.089Z,41.65
2022-10-26T19:16:46.463Z,38.42
2022-10-26T19:19:14.642Z,43.22
2022-10-26T19:21:41.804Z,38.60
2022-10-26T19:24:11.600Z,37.47
2022-10-26T19:26:42.359Z,45.55
2022-10-26T19:29:12.495Z,46.03
2022-10-26T19:31:39.664Z,58.33
2022-10-26T19:34:06.892Z,54.10
2022-10-26T19:36:34.150Z,48.92
2022-10-26T19:39:01.999Z,45.15
2022-10-26T19:41:31.195Z,43.85
2022-10-26T19:46:27.264Z,55.00
2022-10-26T19:48:55.081Z,60.63
2022-10-26T19:51:22.604Z,132.90
2022-10-26T19:53:49.847Z,63.35
2022-10-26T19:56:20.525Z,63.90
2022-10-26T19:58:48.043Z,58.05
2022-10-26T20:01:15.815Z,56.70
2022-10-26T20:03:43.158Z,51.63
2022-10-26T20:06:14.021Z,45.97
2022-10-26T20:08:41.697Z,48.70
2022-10-26T20:11:11.629Z,47.65
2022-10-26T20:13:41.991Z,43.20
2022-10-26T20:16:09.152Z,40.30
2022-10-26T20:18:36.333Z,38.88
2022-10-26T20:21:07.211Z,42.65
2022-10-26T20:23:34.339Z,38.72
2022-10-26T20:26:03.250Z,42.03
2022-10-26T20:28:30.723Z,69.63
2022-10-26T20:30:59.424Z,65.57
2022-10-26T20:33:26.986Z,55.17
2022-10-26T20:35:57.828Z,53.38
2022-10-26T20:38:25.254Z,50.22
2022-10-26T20:40:56.450Z,49.47
2022-10-26T20:43:23.828Z,47.83
2022-10-26T20:45:51.152Z,40.85
2022-10-26T20:48:18.542Z,44.72
2022-10-26T20:50:55.045Z,42.15
2022-10-26T20:53:29.339Z,38.10
2022-10-26T20:56:00.334Z,35.72
2022-10-26T20:58:40.602Z,33.13
2022-10-26T21:01:17.496Z,37.42
2022-10-26T21:03:44.731Z,36.78
2022-10-26T21:06:11.910Z,35.92
2022-10-26T21:08:39.139Z,36.38
2022-10-26T21:11:06.384Z,36.42
2022-10-26T21:13:33.550Z,33.83
2022-10-26T21:16:03.689Z,31.25
2022-10-26T21:18:30.883Z,28.75
2022-10-26T21:20:58.728Z,27.73
2022-10-26T21:23:29.386Z,27.67
2022-10-26T21:25:56.544Z,27.75
2022-10-26T21:28:23.726Z,30.17
2022-10-26T21:30:50.912Z,29.38
2022-10-26T21:33:21.278Z,27.25
2022-10-26T21:35:57.274Z,28.33
2022-10-26T21:38:24.402Z,28.85
2022-10-26T21:40:51.558Z,26.92
2022-10-26T21:43:18.976Z,26.08
2022-10-26T21:45:46.130Z,25.77
2022-10-26T21:48:13.280Z,26.80
2022-10-26T21:50:42.191Z,26.02
2022-10-26T21:53:09.317Z,24.40
2022-10-26T21:55:36.465Z,26.38
2022-10-26T21:58:03.787Z,24.63
2022-10-26T22:00:30.923Z,24.58
2022-10-26T22:02:58.078Z,21.73
2022-10-26T22:05:25.315Z,20.00
2022-10-26T22:07:53.243Z,18.67
2022-10-26T22:10:20.637Z,19.05
2022-10-26T22:12:47.823Z,19.58
2022-10-26T22:15:14.971Z,21.75
2022-10-26T22:17:42.149Z,19.33
2022-10-26T22:20:09.841Z,19.23
2022-10-26T22:22:37.064Z,21.13
2022-10-26T22:25:05.667Z,30.48
2022-10-26T22:27:32.913Z,37.88
2022-10-26T22:30:00.144Z,37.15
2022-10-26T22:32:27.287Z,32.08
2022-10-26T22:35:10.404Z,30.52
2022-10-26T22:37:44.358Z,34.65
2022-10-26T22:40:11.963Z,32.33
2022-10-26T22:42:39.107Z,30.90
2022-10-26T22:45:06.504Z,28.02
2022-10-26T22:47:33.672Z,25.50
2022-10-26T22:50:00.818Z,24.90
2022-10-26T22:52:27.993Z,25.13
2022-10-26T22:54:55.248Z,23.87
2022-10-26T22:57:22.381Z,22.38
2022-10-26T22:59:49.518Z,23.10
2022-10-26T23:02:16.741Z,22.10
2022-10-26T23:04:43.953Z,22.53
2022-10-26T23:07:11.121Z,23.00
2022-10-26T23:09:38.316Z,22.63
2022-10-26T23:12:05.608Z,23.80
2022-10-26T23:14:32.747Z,22.87
2022-10-26T23:16:59.939Z,22.00
2022-10-26T23:19:27.124Z,20.30
2022-10-26T23:21:54.255Z,18.92
2022-10-26T23:24:21.446Z,18.53
2022-10-26T23:26:48.584Z,19.77
2022-10-26T23:29:16.975Z,18.60
2022-10-26T23:31:44.147Z,24.73
2022-10-26T23:34:11.322Z,21.37
2022-10-26T23:36:38.479Z,21.40
2022-10-26T23:39:05.654Z,20.90
2022-10-26T23:41:32.842Z,24.70
2022-10-26T23:43:59.991Z,19.57
2022-10-26T23:48:59.202Z,18.80
2022-10-26T23:51:26.360Z,20.03
2022-10-26T23:53:53.519Z,21.13
2022-10-26T23:56:20.650Z,19.77
2022-10-26T23:58:50.499Z,17.83
